This is the latest recevied weather packets stored in our database for station/object KG4ZVW. If no packets are shown the sender has not sent any weather packets the latest 10 day(s).
| Time | Temp. | Humidity | Pressure | Rain* | Wind** | Luminosity | Snow |
|---|---|---|---|---|---|---|---|
| 1777917213 | 26.67° C | 60% | 1016.5 hPa | 0 mm | - | 991 W/m² | - |
| 1777916912 | 26.67° C | 59% | 1016.5 hPa | 0 mm | - | 601 W/m² | - |
| 1777916608 | 26.67° C | 61% | 1016.5 hPa | 0 mm | - | 1092 W/m² | - |
| 1777916306 | 26.67° C | 60% | 1016.5 hPa | 0 mm | - | 461 W/m² | - |
| 1777916001 | 26.67° C | 60% | 1016.5 hPa | 0 mm | - | 981 W/m² | - |
| 1777915716 | 26.11° C | 61% | 1016.5 hPa | 0 mm | - | 756 W/m² | - |
| 1777915412 | 26.11° C | 63% | 1016.6 hPa | 0 mm | - | 977 W/m² | - |
| 1777915108 | 26.11° C | 63% | 1016.6 hPa | 0 mm | - | 457 W/m² | - |
| 1777914804 | 25.56° C | 65% | 1016.6 hPa | 0 mm | - | 1341 W/m² | - |
| 1777914520 | 25.56° C | 62% | 1016.9 hPa | 0 mm | - | 385 W/m² | - |
| 1777914214 | 25.56° C | 61% | 1016.9 hPa | 0 mm | - | 332 W/m² | - |
| 1777913910 | 25.56° C | 62% | 1016.9 hPa | 0 mm | - | 302 W/m² | - |
| 1777913608 | 25.56° C | 60% | 1017 hPa | 0 mm | - | 288 W/m² | - |
| 1777913304 | 26.11° C | 60% | 1017 hPa | 0 mm | - | 364 W/m² | - |
| 1777913021 | 26.11° C | 58% | 1017 hPa | 0 mm | - | 573 W/m² | - |
| 1777912713 | 26.67° C | 59% | 1016.8 hPa | 0 mm | - | 585 W/m² | - |
| 1777912409 | 26.67° C | 61% | 1016.8 hPa | 0 mm | - | 777 W/m² | - |
| 1777912103 | 26.11° C | 60% | 1016.8 hPa | 0 mm | - | 476 W/m² | - |
| 1777911818 | 26.67° C | 59% | 1016.7 hPa | 0 mm | - | 580 W/m² | - |
| 1777911512 | 26.67° C | 58% | 1016.7 hPa | 0 mm | - | 425 W/m² | - |
| 1777911208 | 26.67° C | 59% | 1016.7 hPa | 0 mm | - | 425 W/m² | - |
| 1777910903 | 27.22° C | 60% | 1016.7 hPa | 0 mm | - | 1005 W/m² | - |
| 1777910618 | 26.67° C | 61% | 1016.7 hPa | 0 mm | - | 1020 W/m² | - |
| 1777910313 | 26.67° C | 60% | 1016.7 hPa | 0 mm | - | 977 W/m² | - |
| 1777910009 | 26.67° C | 63% | 1016.9 hPa | 0 mm | - | 1034 W/m² | - |
* Rain latest hour (hover to see other rain measurements)
** Current wind speed in m/s (hover to see current wind gust speed)